createdAt,value
2022-10-05T00:00:20.815Z,1.09
2022-10-05T00:05:27.219Z,0.25
2022-10-05T00:10:34.507Z,0.26
2022-10-05T00:15:40.851Z,0.68
2022-10-05T00:20:47.618Z,1.00
2022-10-05T00:25:53.979Z,0.39
2022-10-05T00:31:01.443Z,0.33
2022-10-05T00:36:07.801Z,0.24
2022-10-05T00:41:15.148Z,0.33
2022-10-05T00:46:21.642Z,0.37
2022-10-05T00:51:28.222Z,0.36
2022-10-05T00:56:34.558Z,0.29
2022-10-05T01:01:41.323Z,0.33
2022-10-05T01:06:47.936Z,0.36
2022-10-05T01:11:54.410Z,0.21
2022-10-05T01:17:00.766Z,0.48
2022-10-05T01:22:07.472Z,0.41
2022-10-05T01:27:13.859Z,0.66
2022-10-05T01:32:20.579Z,0.29
2022-10-05T01:37:48.094Z,0.45
2022-10-05T01:42:54.820Z,0.41
2022-10-05T01:48:01.176Z,0.48
2022-10-05T01:53:07.862Z,1.41
2022-10-05T01:58:14.243Z,0.27
2022-10-05T02:03:21.005Z,0.46
2022-10-05T02:08:27.350Z,0.27
2022-10-05T02:13:35.438Z,0.29
2022-10-05T02:18:41.817Z,0.22
2022-10-05T02:23:49.256Z,0.28
2022-10-05T02:28:55.614Z,0.32
2022-10-05T02:34:02.309Z,0.54
2022-10-05T02:39:08.664Z,0.28
2022-10-05T02:44:15.439Z,0.35
2022-10-05T02:49:21.783Z,0.37
2022-10-05T02:54:28.574Z,0.51
2022-10-05T02:59:34.960Z,0.59
2022-10-05T03:04:42.024Z,1.05
2022-10-05T03:09:49.964Z,0.30
2022-10-05T03:14:57.285Z,0.29
2022-10-05T03:20:03.696Z,0.38
2022-10-05T03:25:10.400Z,0.54
2022-10-05T03:30:16.811Z,0.36
2022-10-05T03:35:24.032Z,0.63
2022-10-05T03:40:30.454Z,0.72
2022-10-05T03:45:37.099Z,0.36
2022-10-05T03:50:43.452Z,0.43
2022-10-05T03:55:50.147Z,0.29
2022-10-05T04:00:56.538Z,0.42
2022-10-05T04:06:03.266Z,0.49
2022-10-05T04:11:09.647Z,0.34
2022-10-05T04:16:18.869Z,0.34
2022-10-05T04:21:25.217Z,0.45
2022-10-05T04:26:32.584Z,0.30
2022-10-05T04:31:38.999Z,0.37
2022-10-05T04:36:45.777Z,0.36
2022-10-05T04:41:51.528Z,0.67
2022-10-05T04:46:58.329Z,0.62
2022-10-05T04:52:04.624Z,0.49
2022-10-05T04:57:11.314Z,0.33
2022-10-05T05:02:17.686Z,0.30
2022-10-05T05:07:24.283Z,0.48
2022-10-05T05:12:32.479Z,0.30
2022-10-05T05:17:39.791Z,0.34
2022-10-05T05:22:46.165Z,0.15
2022-10-05T05:27:52.969Z,0.42
2022-10-05T05:32:59.315Z,0.30
2022-10-05T05:38:06.007Z,0.41
2022-10-05T05:43:12.963Z,0.32
2022-10-05T05:53:24.970Z,0.72
2022-10-05T05:58:31.723Z,0.38
2022-10-05T06:03:38.117Z,0.49
2022-10-05T06:08:45.096Z,0.38
2022-10-05T06:13:51.455Z,0.30
2022-10-05T06:18:58.766Z,0.43
2022-10-05T06:24:05.159Z,0.41
2022-10-05T06:29:12.408Z,0.42
2022-10-05T06:34:18.856Z,0.75
2022-10-05T06:39:25.527Z,0.61
2022-10-05T06:44:32.051Z,1.45
2022-10-05T06:49:38.848Z,0.53
2022-10-05T06:54:45.208Z,0.41
2022-10-05T06:59:51.871Z,0.48
2022-10-05T07:04:58.634Z,1.41
2022-10-05T07:10:05.261Z,1.01
2022-10-05T07:15:11.666Z,0.42
2022-10-05T07:20:19.117Z,0.46
2022-10-05T07:25:25.617Z,0.32
2022-10-05T07:30:33.017Z,0.76
2022-10-05T07:35:39.523Z,0.51
2022-10-05T07:40:46.922Z,0.45
2022-10-05T07:45:53.328Z,0.78
2022-10-05T07:51:00.629Z,0.32
2022-10-05T07:56:07.055Z,0.30
2022-10-05T08:01:14.541Z,0.48
2022-10-05T08:06:20.914Z,0.32
2022-10-05T08:11:28.476Z,0.30
2022-10-05T08:16:34.986Z,0.33
2022-10-05T08:21:43.027Z,0.30
2022-10-05T08:26:49.394Z,0.33
2022-10-05T08:31:56.923Z,0.44
2022-10-05T08:37:03.325Z,1.96
2022-10-05T08:42:10.733Z,0.34
2022-10-05T08:47:17.090Z,0.39
2022-10-05T08:52:23.753Z,0.38
2022-10-05T08:57:30.124Z,0.44
2022-10-05T09:02:36.904Z,0.30
2022-10-05T09:07:43.209Z,1.03
2022-10-05T09:12:50.023Z,0.33
2022-10-05T09:17:56.424Z,0.57
2022-10-05T09:23:03.359Z,0.44
2022-10-05T09:28:09.759Z,0.38
2022-10-05T09:33:16.413Z,0.41
2022-10-05T09:38:22.868Z,0.70
2022-10-05T09:43:29.841Z,0.53
2022-10-05T09:48:36.310Z,0.33
2022-10-05T09:53:43.109Z,0.39
2022-10-05T09:58:49.495Z,0.86
2022-10-05T10:03:56.188Z,0.74
2022-10-05T10:09:02.558Z,0.47
2022-10-05T10:14:09.590Z,1.58
2022-10-05T10:19:15.965Z,0.29
2022-10-05T10:24:22.901Z,0.54
2022-10-05T10:29:29.281Z,0.23
2022-10-05T10:34:37.956Z,0.36
2022-10-05T10:39:44.306Z,0.49
2022-10-05T10:44:51.731Z,0.65
2022-10-05T10:49:58.182Z,0.72
2022-10-05T10:55:04.907Z,1.17
2022-10-05T11:00:11.305Z,0.58
2022-10-05T11:05:24.822Z,0.45
2022-10-05T11:10:23.852Z,0.77
2022-10-05T11:15:31.182Z,0.51
2022-10-05T11:20:37.553Z,0.71
2022-10-05T11:25:44.887Z,0.66
2022-10-05T11:30:51.398Z,0.59
2022-10-05T11:35:58.013Z,0.51
2022-10-05T11:41:21.648Z,0.97
2022-10-05T11:46:28.494Z,0.36
2022-10-05T11:51:34.892Z,0.53
2022-10-05T11:56:42.011Z,0.45
2022-10-05T12:01:48.386Z,0.68
2022-10-05T12:06:55.127Z,0.39
2022-10-05T12:12:01.495Z,0.49
2022-10-05T12:17:08.208Z,0.57
2022-10-05T12:22:14.570Z,0.39
2022-10-05T12:27:21.821Z,0.34
2022-10-05T12:32:28.186Z,0.48
2022-10-05T12:37:34.885Z,0.99
2022-10-05T12:42:42.065Z,2.18
2022-10-05T12:47:53.594Z,0.63
2022-10-05T12:52:56.261Z,0.54
2022-10-05T12:58:03.759Z,0.48
2022-10-05T13:03:10.143Z,0.71
2022-10-05T13:08:17.650Z,0.40
2022-10-05T13:13:24.060Z,0.41
2022-10-05T13:18:34.850Z,0.59
2022-10-05T13:23:32.466Z,0.84
2022-10-05T13:28:37.670Z,0.62
2022-10-05T13:33:44.050Z,0.35
2022-10-05T13:38:50.670Z,0.46
2022-10-05T13:43:57.037Z,0.37
2022-10-05T13:49:04.466Z,0.60
2022-10-05T13:54:10.856Z,0.57
2022-10-05T13:59:18.426Z,0.57
2022-10-05T14:04:24.838Z,0.60
2022-10-05T14:09:31.595Z,0.58
2022-10-05T14:14:37.976Z,0.68
2022-10-05T14:19:44.738Z,0.45
2022-10-05T14:24:51.618Z,0.22
2022-10-05T14:29:59.132Z,0.39
2022-10-05T14:35:06.042Z,0.39
2022-10-05T14:40:13.131Z,0.55
2022-10-05T14:45:19.465Z,0.45
2022-10-05T14:50:26.311Z,0.30
2022-10-05T14:55:32.659Z,0.40
2022-10-05T15:00:40.094Z,0.47
2022-10-05T15:05:49.601Z,0.48
2022-10-05T15:10:56.313Z,0.32
2022-10-05T15:16:02.709Z,0.48
2022-10-05T15:21:09.524Z,0.40
2022-10-05T15:26:16.199Z,1.28
2022-10-05T15:31:22.873Z,0.33
2022-10-05T15:36:29.343Z,0.82
2022-10-05T15:41:36.180Z,0.66
2022-10-05T15:46:42.613Z,0.73
2022-10-05T15:51:49.383Z,0.66
2022-10-05T15:56:55.774Z,0.79
2022-10-05T16:02:02.484Z,1.18
2022-10-05T16:07:08.797Z,0.50
2022-10-05T16:12:16.585Z,0.40
2022-10-05T16:17:23.169Z,0.41
2022-10-05T16:22:30.545Z,0.39
2022-10-05T16:27:36.904Z,0.39
2022-10-05T16:32:43.632Z,0.45
2022-10-05T16:37:50.190Z,0.45
2022-10-05T16:42:56.969Z,1.58
2022-10-05T16:48:03.321Z,0.84
2022-10-05T16:53:10.113Z,0.42
2022-10-05T16:58:16.515Z,0.60
2022-10-05T17:03:23.162Z,0.46
2022-10-05T17:08:29.523Z,0.55
2022-10-05T17:13:36.404Z,0.99
2022-10-05T17:18:42.871Z,0.62
2022-10-05T17:23:50.513Z,0.62
2022-10-05T17:28:56.896Z,2.62
2022-10-05T17:34:03.669Z,0.43
2022-10-05T17:44:11.758Z,0.52
2022-10-05T17:49:18.177Z,0.43
2022-10-05T17:54:24.861Z,0.75
2022-10-05T17:59:31.257Z,0.63
2022-10-05T18:04:37.976Z,0.35
2022-10-05T18:09:44.357Z,0.45
2022-10-05T18:14:51.167Z,0.42
2022-10-05T18:19:57.578Z,1.16
2022-10-05T18:25:04.341Z,1.49
2022-10-05T18:30:10.758Z,0.56
2022-10-05T18:35:17.550Z,0.60
2022-10-05T18:40:24.051Z,0.53
2022-10-05T18:45:30.790Z,0.33
2022-10-05T18:50:37.201Z,0.39
2022-10-05T18:55:43.960Z,0.53
2022-10-05T19:00:50.370Z,0.66
2022-10-05T19:05:57.218Z,0.50
2022-10-05T19:11:03.722Z,1.19
2022-10-05T19:16:13.016Z,1.75
2022-10-05T19:21:19.342Z,0.52
2022-10-05T19:26:27.021Z,0.38
2022-10-05T19:31:33.448Z,0.62
2022-10-05T19:36:40.303Z,0.71
2022-10-05T19:41:47.196Z,0.52
2022-10-05T19:46:53.903Z,0.86
2022-10-05T19:52:00.381Z,0.86
2022-10-05T19:57:07.213Z,1.15
2022-10-05T20:02:13.719Z,1.63
2022-10-05T20:07:20.518Z,0.66
2022-10-05T20:12:28.236Z,1.61
2022-10-05T20:17:36.247Z,0.51
2022-10-05T20:22:42.527Z,0.61
2022-10-05T20:27:49.169Z,0.52
2022-10-05T20:32:55.516Z,0.71
2022-10-05T20:38:02.278Z,0.76
2022-10-05T20:43:09.936Z,1.14
2022-10-05T20:48:16.656Z,0.59
2022-10-05T20:53:23.015Z,1.92
2022-10-05T20:58:30.826Z,0.89
2022-10-05T21:03:36.314Z,0.58
2022-10-05T21:08:45.288Z,0.69
2022-10-05T21:13:51.653Z,1.21
2022-10-05T21:18:58.942Z,0.97
2022-10-05T21:24:05.319Z,0.88
2022-10-05T21:29:12.924Z,0.56
2022-10-05T21:34:18.005Z,0.68
2022-10-05T21:39:25.996Z,1.85
2022-10-05T21:44:32.869Z,1.17
2022-10-05T21:49:40.328Z,1.89
2022-10-05T21:54:46.828Z,2.95
2022-10-05T21:59:53.582Z,3.44
2022-10-05T22:05:00.521Z,2.27
2022-10-05T22:10:07.532Z,2.24
2022-10-05T22:15:13.891Z,1.95
2022-10-05T22:20:20.794Z,1.80
2022-10-05T22:25:27.245Z,2.61
2022-10-05T22:30:33.895Z,2.45
2022-10-05T22:35:40.293Z,5.20
2022-10-05T22:40:47.007Z,1.76
2022-10-05T22:45:53.393Z,2.34
2022-10-05T22:51:00.115Z,3.15
2022-10-05T22:56:06.458Z,3.61
2022-10-05T23:01:13.409Z,2.77
2022-10-05T23:06:20.240Z,2.26
2022-10-05T23:11:26.899Z,2.04
2022-10-05T23:16:33.309Z,2.75
2022-10-05T23:21:39.975Z,3.82
2022-10-05T23:26:46.339Z,3.10
2022-10-05T23:31:52.959Z,2.08
2022-10-05T23:36:59.341Z,1.82
2022-10-05T23:42:06.057Z,3.43
2022-10-05T23:47:12.437Z,2.05
2022-10-05T23:52:19.125Z,1.78
2022-10-05T23:57:25.518Z,3.31
